createdAt,value
2017-10-19T00:00:04.695Z,11.20
2017-10-19T00:02:32.277Z,11.20
2017-10-19T00:04:59.898Z,11.20
2017-10-19T00:07:28.266Z,11.00
2017-10-19T00:09:56.660Z,10.80
2017-10-19T00:12:24.253Z,10.80
2017-10-19T00:14:51.830Z,10.90
2017-10-19T00:17:19.473Z,10.90
2017-10-19T00:19:47.055Z,10.90
2017-10-19T00:22:14.648Z,10.90
2017-10-19T00:24:43.046Z,11.00
2017-10-19T00:27:10.629Z,11.00
2017-10-19T00:29:38.271Z,11.00
2017-10-19T00:32:06.683Z,11.20
2017-10-19T00:34:34.311Z,11.10
2017-10-19T00:37:01.927Z,11.10
2017-10-19T00:39:29.658Z,10.90
2017-10-19T00:41:57.236Z,10.90
2017-10-19T00:44:24.817Z,10.80
2017-10-19T00:46:52.458Z,10.90
2017-10-19T00:49:20.121Z,10.80
2017-10-19T00:51:47.713Z,10.90
2017-10-19T00:54:15.308Z,10.80
2017-10-19T00:56:42.924Z,10.80
2017-10-19T00:59:10.500Z,10.80
2017-10-19T01:01:38.156Z,10.80
2017-10-19T01:04:05.777Z,10.90
2017-10-19T01:06:33.434Z,10.90
2017-10-19T01:09:01.089Z,10.80
2017-10-19T01:11:28.758Z,10.50
2017-10-19T01:13:56.339Z,10.40
2017-10-19T01:16:23.963Z,10.70
2017-10-19T01:18:52.331Z,10.60
2017-10-19T01:21:20.724Z,10.60
2017-10-19T01:23:48.370Z,10.50
2017-10-19T01:26:15.992Z,10.50
2017-10-19T01:28:43.623Z,10.40
2017-10-19T01:31:11.210Z,10.50
2017-10-19T01:33:38.851Z,10.40
2017-10-19T01:36:06.463Z,10.40
2017-10-19T01:38:34.101Z,10.40
2017-10-19T01:41:01.745Z,10.20
2017-10-19T01:43:29.359Z,10.10
2017-10-19T01:45:57.767Z,10.30
2017-10-19T01:48:25.364Z,10.20
2017-10-19T01:50:53.004Z,10.00
2017-10-19T01:53:20.611Z,9.90
2017-10-19T01:55:48.205Z,9.90
2017-10-19T01:58:16.599Z,10.20
2017-10-19T02:00:44.178Z,10.20
2017-10-19T02:03:11.796Z,10.30
2017-10-19T02:05:40.147Z,10.30
2017-10-19T02:08:07.786Z,10.30
2017-10-19T02:10:35.389Z,10.00
2017-10-19T02:13:03.024Z,9.90
2017-10-19T02:15:30.635Z,9.90
2017-10-19T02:17:59.049Z,10.00
2017-10-19T02:20:26.647Z,9.90
2017-10-19T02:22:54.240Z,9.90
2017-10-19T02:25:22.652Z,10.10
2017-10-19T02:27:50.248Z,10.10
2017-10-19T02:30:17.860Z,10.20
2017-10-19T02:32:45.513Z,10.10
2017-10-19T02:35:13.109Z,10.10
2017-10-19T02:37:40.709Z,10.00
2017-10-19T02:40:08.336Z,10.20
2017-10-19T02:42:35.914Z,10.10
2017-10-19T02:45:03.499Z,10.10
2017-10-19T02:47:31.889Z,9.90
2017-10-19T02:50:00.296Z,9.90
2017-10-19T02:52:27.885Z,9.90
2017-10-19T02:54:55.521Z,10.00
2017-10-19T02:57:23.125Z,10.00
2017-10-19T02:59:50.708Z,9.90
2017-10-19T03:02:20.952Z,10.00
2017-10-19T03:04:48.575Z,10.00
2017-10-19T03:07:16.177Z,10.00
2017-10-19T03:09:43.827Z,10.00
2017-10-19T03:12:12.190Z,9.90
2017-10-19T03:14:39.843Z,9.90
2017-10-19T03:17:07.478Z,9.80
2017-10-19T03:19:35.109Z,9.90
2017-10-19T03:22:02.727Z,9.80
2017-10-19T03:24:30.338Z,9.80
2017-10-19T03:26:57.922Z,9.80
2017-10-19T03:29:25.574Z,9.90
2017-10-19T03:31:53.969Z,9.80
2017-10-19T03:34:21.580Z,9.80
2017-10-19T03:36:49.208Z,9.90
2017-10-19T03:39:16.817Z,9.90
2017-10-19T03:41:44.432Z,9.80
2017-10-19T03:44:12.047Z,9.80
2017-10-19T03:46:39.644Z,9.80
2017-10-19T03:49:07.328Z,9.80
2017-10-19T03:51:34.937Z,9.90
2017-10-19T03:54:02.620Z,9.80
2017-10-19T03:56:30.224Z,9.70
2017-10-19T03:58:58.646Z,9.90
2017-10-19T04:01:26.316Z,9.90
2017-10-19T04:03:53.934Z,9.80
2017-10-19T04:06:22.301Z,9.50
2017-10-19T04:08:49.886Z,9.50
2017-10-19T04:11:17.520Z,9.40
2017-10-19T04:13:45.110Z,9.50
2017-10-19T04:16:12.718Z,9.40
2017-10-19T04:18:40.335Z,9.40
2017-10-19T04:21:08.746Z,9.30
2017-10-19T04:23:36.352Z,9.30
2017-10-19T04:26:03.938Z,9.50
2017-10-19T04:28:32.357Z,9.50
2017-10-19T04:30:59.964Z,9.50
2017-10-19T04:33:28.329Z,9.40
2017-10-19T04:35:55.986Z,9.30
2017-10-19T04:38:23.587Z,9.40
2017-10-19T04:40:51.241Z,9.50
2017-10-19T04:43:18.869Z,9.40
2017-10-19T04:45:46.444Z,9.50
2017-10-19T04:48:14.100Z,9.50
2017-10-19T04:50:41.679Z,9.60
2017-10-19T04:53:10.234Z,9.50
2017-10-19T04:55:37.883Z,9.50
2017-10-19T04:58:05.514Z,9.40
2017-10-19T05:00:33.122Z,9.40
2017-10-19T05:03:00.765Z,9.40
2017-10-19T05:05:28.414Z,9.40
2017-10-19T05:07:56.048Z,9.50
2017-10-19T05:10:24.438Z,9.40
2017-10-19T05:12:52.159Z,9.40
2017-10-19T05:15:19.821Z,9.40
2017-10-19T05:17:47.405Z,9.40
2017-10-19T05:20:15.407Z,9.30
2017-10-19T05:22:43.017Z,9.20
2017-10-19T05:25:10.674Z,9.30
2017-10-19T05:27:39.156Z,9.40
2017-10-19T05:30:06.765Z,9.40
2017-10-19T05:32:34.484Z,9.20
2017-10-19T05:35:02.284Z,9.30
2017-10-19T05:37:29.925Z,9.40
2017-10-19T05:39:58.393Z,9.40
2017-10-19T05:42:26.429Z,9.40
2017-10-19T05:44:54.149Z,9.50
2017-10-19T05:47:21.818Z,9.40
2017-10-19T05:50:01.261Z,9.10
2017-10-19T05:52:29.447Z,9.10
2017-10-19T05:54:58.003Z,9.10
2017-10-19T05:57:26.858Z,9.20
2017-10-19T05:59:55.363Z,9.40
2017-10-19T06:02:23.998Z,9.50
2017-10-19T06:04:51.617Z,9.40
2017-10-19T06:07:19.201Z,9.30
2017-10-19T06:09:47.603Z,9.50
2017-10-19T06:12:15.305Z,9.40
2017-10-19T06:14:43.094Z,9.40
2017-10-19T06:17:10.829Z,9.60
2017-10-19T06:19:38.588Z,9.50
2017-10-19T06:22:07.217Z,9.60
2017-10-19T06:24:35.581Z,9.60
2017-10-19T06:27:03.623Z,9.60
2017-10-19T06:29:31.260Z,9.70
2017-10-19T06:31:59.176Z,9.70
2017-10-19T06:34:26.808Z,9.70
2017-10-19T06:36:55.812Z,9.80
2017-10-19T06:39:24.205Z,9.80
2017-10-19T06:41:51.823Z,9.80
2017-10-19T06:44:19.416Z,10.00
2017-10-19T06:46:47.062Z,9.90
2017-10-19T06:49:14.966Z,10.10
2017-10-19T06:51:43.396Z,10.30
2017-10-19T06:54:12.212Z,10.30
2017-10-19T06:56:41.146Z,10.00
2017-10-19T06:59:08.754Z,10.00
2017-10-19T07:01:36.389Z,10.00
2017-10-19T07:04:04.893Z,10.00
2017-10-19T07:06:32.486Z,10.00
2017-10-19T07:09:00.167Z,10.10
2017-10-19T07:11:27.779Z,10.20
2017-10-19T07:13:55.515Z,10.30
2017-10-19T07:16:24.383Z,10.40
2017-10-19T07:18:53.308Z,10.50
2017-10-19T07:21:21.316Z,10.50
2017-10-19T07:23:49.132Z,10.60
2017-10-19T07:26:16.774Z,10.70
2017-10-19T07:28:44.362Z,10.80
2017-10-19T07:31:13.199Z,10.60
2017-10-19T07:33:41.134Z,10.60
2017-10-19T07:36:08.765Z,10.60
2017-10-19T07:38:36.355Z,10.60
2017-10-19T07:41:04.856Z,10.80
2017-10-19T07:43:32.846Z,10.70
2017-10-19T07:46:01.574Z,10.90
2017-10-19T07:48:29.385Z,10.80
2017-10-19T07:50:56.987Z,11.00
2017-10-19T07:53:24.667Z,11.30
2017-10-19T07:55:52.434Z,11.40
2017-10-19T07:58:20.819Z,11.30
2017-10-19T08:00:48.455Z,11.50
2017-10-19T08:03:16.241Z,11.50
2017-10-19T08:05:44.827Z,11.90
2017-10-19T08:08:13.270Z,11.90
2017-10-19T08:10:40.931Z,11.90
2017-10-19T08:13:08.622Z,11.90
2017-10-19T08:15:37.037Z,11.80
2017-10-19T08:18:04.707Z,11.80
2017-10-19T08:20:32.429Z,12.00
2017-10-19T08:23:00.348Z,12.10
2017-10-19T08:25:36.843Z,12.00
2017-10-19T08:28:04.550Z,12.00
2017-10-19T08:30:33.727Z,12.10
2017-10-19T08:33:02.111Z,12.10
2017-10-19T08:35:29.764Z,12.10
2017-10-19T08:37:57.379Z,12.00
2017-10-19T08:40:25.029Z,12.20
2017-10-19T08:42:53.452Z,12.50
2017-10-19T08:45:21.084Z,12.50
2017-10-19T08:47:48.770Z,12.40
2017-10-19T08:50:16.421Z,12.40
2017-10-19T08:52:44.063Z,12.50
2017-10-19T08:55:11.781Z,12.60
2017-10-19T08:57:40.248Z,13.20
2017-10-19T09:00:07.864Z,13.20
2017-10-19T09:02:35.572Z,13.70
2017-10-19T09:05:03.172Z,14.40
2017-10-19T09:07:30.849Z,15.90
2017-10-19T09:09:59.277Z,15.30
2017-10-19T09:12:28.838Z,15.30
2017-10-19T09:14:57.028Z,14.80
2017-10-19T09:17:25.199Z,14.90
2017-10-19T09:19:54.084Z,14.50
2017-10-19T09:22:21.751Z,15.00
2017-10-19T09:24:49.372Z,15.40
2017-10-19T09:27:17.034Z,15.20
2017-10-19T09:29:44.647Z,15.20
2017-10-19T09:32:12.272Z,15.10
2017-10-19T09:34:40.696Z,15.40
2017-10-19T09:37:08.306Z,15.40
2017-10-19T09:39:36.013Z,15.10
2017-10-19T09:42:11.716Z,15.00
2017-10-19T09:44:39.392Z,14.70
2017-10-19T09:47:11.982Z,15.00
2017-10-19T09:49:39.630Z,15.00
2017-10-19T09:52:08.064Z,15.70
2017-10-19T09:54:35.789Z,15.60
2017-10-19T09:57:04.586Z,15.70
2017-10-19T09:59:33.921Z,15.90
2017-10-19T10:02:07.692Z,15.90
2017-10-19T10:04:39.368Z,15.90
2017-10-19T10:09:49.585Z,16.30
2017-10-19T10:12:17.284Z,16.60
2017-10-19T10:14:45.687Z,16.50
2017-10-19T10:17:13.455Z,16.50
2017-10-19T10:19:41.043Z,16.70
2017-10-19T10:22:08.935Z,17.00
2017-10-19T10:24:41.707Z,17.20
2017-10-19T10:27:09.416Z,17.60
2017-10-19T10:29:37.771Z,17.80
2017-10-19T10:32:06.158Z,17.90
2017-10-19T10:34:33.825Z,17.90
2017-10-19T10:37:02.236Z,18.10
2017-10-19T10:39:29.897Z,18.00
2017-10-19T10:41:57.565Z,18.30
2017-10-19T10:44:25.191Z,18.50
2017-10-19T10:46:53.597Z,18.80
2017-10-19T10:49:21.325Z,18.70
2017-10-19T10:51:49.084Z,19.20
2017-10-19T10:54:16.731Z,19.40
2017-10-19T10:56:44.388Z,20.00
2017-10-19T10:59:11.985Z,20.40
2017-10-19T11:01:40.669Z,20.70
2017-10-19T11:04:09.287Z,20.60
2017-10-19T11:06:38.482Z,20.80
2017-10-19T11:09:07.886Z,20.70
2017-10-19T11:11:37.078Z,21.20
2017-10-19T11:14:19.020Z,21.40
2017-10-19T11:16:54.634Z,21.70
2017-10-19T11:19:22.319Z,21.80
2017-10-19T11:21:50.038Z,21.80
2017-10-19T11:24:18.664Z,22.60
2017-10-19T11:26:47.418Z,23.80
2017-10-19T11:29:15.542Z,23.80
2017-10-19T11:31:43.964Z,25.30
2017-10-19T11:34:23.890Z,26.50
2017-10-19T11:36:51.841Z,26.50
2017-10-19T11:39:20.840Z,28.30
2017-10-19T11:41:48.950Z,27.30
2017-10-19T11:44:16.920Z,27.90
2017-10-19T11:46:45.761Z,28.30
2017-10-19T11:49:13.958Z,28.30
2017-10-19T11:51:42.052Z,28.40
2017-10-19T11:54:10.027Z,28.50
2017-10-19T11:56:38.071Z,28.30
2017-10-19T11:59:06.026Z,28.00
2017-10-19T12:01:33.989Z,28.00
2017-10-19T12:04:01.750Z,28.70
2017-10-19T12:06:29.374Z,28.70
2017-10-19T12:08:57.019Z,28.50
2017-10-19T12:11:24.665Z,28.90
2017-10-19T12:13:52.341Z,28.60
2017-10-19T12:16:20.068Z,28.40
2017-10-19T12:18:47.692Z,28.80
2017-10-19T12:21:15.612Z,28.80
2017-10-19T12:23:43.643Z,28.10
2017-10-19T12:26:11.509Z,27.50
2017-10-19T12:28:39.512Z,26.60
2017-10-19T12:31:07.402Z,25.80
2017-10-19T12:33:35.128Z,25.30
2017-10-19T12:36:02.758Z,25.10
2017-10-19T12:38:30.420Z,24.50
2017-10-19T12:40:58.783Z,23.50
2017-10-19T12:43:26.347Z,23.50
2017-10-19T12:45:54.063Z,23.40
2017-10-19T12:48:21.748Z,23.20
2017-10-19T12:50:49.342Z,23.00
2017-10-19T12:53:17.016Z,23.30
2017-10-19T12:55:47.675Z,22.90
2017-10-19T12:58:15.327Z,22.90
2017-10-19T13:00:43.717Z,23.10
2017-10-19T13:03:11.424Z,23.10
2017-10-19T13:05:39.051Z,22.90
2017-10-19T13:08:06.710Z,22.90
2017-10-19T13:10:34.858Z,22.80
2017-10-19T13:13:03.603Z,22.60
2017-10-19T13:15:31.311Z,22.60
2017-10-19T13:17:59.751Z,22.60
2017-10-19T13:20:27.422Z,22.50
2017-10-19T13:22:55.007Z,22.50
2017-10-19T13:25:22.632Z,22.60
2017-10-19T13:27:50.216Z,22.60
2017-10-19T13:30:17.834Z,22.50
2017-10-19T13:32:45.515Z,22.40
2017-10-19T13:35:13.307Z,22.50
2017-10-19T13:37:40.944Z,22.30
2017-10-19T13:40:08.589Z,22.30
2017-10-19T13:42:36.179Z,22.10
2017-10-19T13:45:04.593Z,22.10
2017-10-19T13:47:33.010Z,22.40
2017-10-19T13:50:00.687Z,22.40
2017-10-19T13:52:28.279Z,22.40
2017-10-19T13:54:55.928Z,22.70
2017-10-19T13:57:23.559Z,22.70
2017-10-19T13:59:52.010Z,22.40
2017-10-19T14:02:20.369Z,22.50
2017-10-19T14:04:48.006Z,22.50
2017-10-19T14:07:15.628Z,22.30
2017-10-19T14:09:43.220Z,22.40
2017-10-19T14:12:10.843Z,22.50
2017-10-19T14:14:39.269Z,22.50
2017-10-19T14:17:06.892Z,22.50
2017-10-19T14:19:34.587Z,22.50
2017-10-19T14:22:02.183Z,22.70
2017-10-19T14:24:29.823Z,22.70
2017-10-19T14:26:57.489Z,22.60
2017-10-19T14:29:25.067Z,22.40
2017-10-19T14:31:52.690Z,22.30
2017-10-19T14:34:20.408Z,22.10
2017-10-19T14:36:48.124Z,22.10
2017-10-19T14:39:15.864Z,22.20
2017-10-19T14:41:43.467Z,22.20
2017-10-19T14:44:11.728Z,22.20
2017-10-19T14:46:40.292Z,22.10
2017-10-19T14:49:08.008Z,21.90
2017-10-19T14:51:35.645Z,22.00
2017-10-19T14:54:03.316Z,22.00
2017-10-19T14:56:31.001Z,22.00
2017-10-19T14:58:58.634Z,22.00
2017-10-19T15:01:27.140Z,22.00
2017-10-19T15:03:55.531Z,22.00
2017-10-19T15:06:24.106Z,22.00
2017-10-19T15:08:51.823Z,21.90
2017-10-19T15:11:19.444Z,21.80
2017-10-19T15:13:47.087Z,21.80
2017-10-19T15:16:14.721Z,21.70
2017-10-19T15:18:42.351Z,21.80
2017-10-19T15:21:10.886Z,21.70
2017-10-19T15:23:38.476Z,21.70
2017-10-19T15:26:06.133Z,21.50
2017-10-19T15:28:33.830Z,21.50
2017-10-19T15:31:05.266Z,21.30
2017-10-19T15:33:33.703Z,21.20
2017-10-19T15:36:01.357Z,21.20
2017-10-19T15:38:29.027Z,21.20
2017-10-19T15:40:57.384Z,21.10
2017-10-19T15:43:25.054Z,20.90
2017-10-19T15:45:52.752Z,20.70
2017-10-19T15:48:20.338Z,20.70
2017-10-19T15:51:08.029Z,20.60
2017-10-19T15:53:35.940Z,20.60
2017-10-19T15:56:03.797Z,20.50
2017-10-19T15:58:31.466Z,20.40
2017-10-19T16:00:59.823Z,20.10
2017-10-19T16:03:27.488Z,20.10
2017-10-19T16:05:55.150Z,20.00
2017-10-19T16:08:25.864Z,20.00
2017-10-19T16:10:55.456Z,19.80
2017-10-19T16:13:27.115Z,19.80
2017-10-19T16:15:57.792Z,19.70
2017-10-19T16:18:28.231Z,19.80
2017-10-19T16:21:03.734Z,19.60
2017-10-19T16:23:33.491Z,19.60
2017-10-19T16:26:04.156Z,19.20
2017-10-19T16:28:34.383Z,19.20
2017-10-19T16:31:04.313Z,19.20
2017-10-19T16:33:34.678Z,19.10
2017-10-19T16:36:05.948Z,19.00
2017-10-19T16:38:36.382Z,18.60
2017-10-19T16:41:07.426Z,18.40
2017-10-19T16:43:40.061Z,18.30
2017-10-19T16:46:10.193Z,18.10
2017-10-19T16:48:48.377Z,18.00
2017-10-19T16:51:19.342Z,18.10
2017-10-19T16:53:49.535Z,18.10
2017-10-19T16:56:19.410Z,18.10
2017-10-19T16:58:54.795Z,18.10
2017-10-19T17:01:24.208Z,18.00
2017-10-19T17:04:03.515Z,18.00
2017-10-19T17:06:34.326Z,18.00
2017-10-19T17:09:05.069Z,18.00
2017-10-19T17:11:35.072Z,18.00
2017-10-19T17:14:04.997Z,18.00
2017-10-19T17:16:35.941Z,17.90
2017-10-19T17:19:08.202Z,17.50
2017-10-19T17:21:38.355Z,17.20
2017-10-19T17:24:09.872Z,17.00
2017-10-19T17:26:40.951Z,16.80
2017-10-19T17:29:10.681Z,16.80
2017-10-19T17:31:40.580Z,16.70
2017-10-19T17:34:14.134Z,16.80
2017-10-19T17:36:53.177Z,16.70
2017-10-19T17:39:25.568Z,16.70
2017-10-19T17:41:58.100Z,16.70
2017-10-19T17:44:31.317Z,16.60
2017-10-19T17:47:11.941Z,16.80
2017-10-19T17:49:42.850Z,16.70
2017-10-19T17:52:12.823Z,16.80
2017-10-19T17:54:42.531Z,16.80
2017-10-19T17:57:12.155Z,16.90
2017-10-19T17:59:43.403Z,16.80
2017-10-19T18:02:13.888Z,16.50
2017-10-19T18:04:44.045Z,16.50
2017-10-19T18:07:15.404Z,16.40
2017-10-19T18:09:46.980Z,16.10
2017-10-19T18:12:19.726Z,16.00
2017-10-19T18:14:51.616Z,16.10
2017-10-19T18:17:21.372Z,16.00
2017-10-19T18:19:51.263Z,15.80
2017-10-19T18:22:20.980Z,15.70
2017-10-19T18:24:50.759Z,15.70
2017-10-19T18:27:22.160Z,15.70
2017-10-19T18:29:55.571Z,15.70
2017-10-19T18:32:25.432Z,15.70
2017-10-19T18:34:55.199Z,15.60
2017-10-19T18:37:25.889Z,15.70
2017-10-19T18:39:57.714Z,15.60
2017-10-19T18:42:29.301Z,15.50
2017-10-19T18:45:02.291Z,15.70
2017-10-19T18:47:31.971Z,15.70
2017-10-19T18:50:03.531Z,15.60
2017-10-19T18:52:36.821Z,15.60
2017-10-19T18:55:08.554Z,15.40
2017-10-19T18:57:38.610Z,15.40
2017-10-19T19:00:10.351Z,15.10
2017-10-19T19:02:40.867Z,15.00
2017-10-19T19:05:13.075Z,15.00
2017-10-19T19:07:43.901Z,15.00
2017-10-19T19:10:14.521Z,15.00
2017-10-19T19:12:44.283Z,15.20
2017-10-19T19:15:13.620Z,15.20
2017-10-19T19:17:43.434Z,15.30
2017-10-19T19:20:13.412Z,15.20
2017-10-19T19:22:43.336Z,15.10
2017-10-19T19:25:13.871Z,15.10
2017-10-19T19:27:44.337Z,15.10
2017-10-19T19:30:15.812Z,14.90
2017-10-19T19:32:45.657Z,14.90
2017-10-19T19:35:15.279Z,14.70
2017-10-19T19:37:46.503Z,14.60
2017-10-19T19:40:16.396Z,14.70
2017-10-19T19:42:48.433Z,14.70
2017-10-19T19:45:18.133Z,14.80
2017-10-19T19:47:48.041Z,14.90
2017-10-19T19:50:18.390Z,14.80
2017-10-19T19:52:49.259Z,14.60
2017-10-19T19:55:19.317Z,14.70
2017-10-19T19:57:48.925Z,14.60
2017-10-19T20:00:18.732Z,14.60
2017-10-19T20:02:48.658Z,14.60
2017-10-19T20:05:18.478Z,14.80
2017-10-19T20:07:48.185Z,14.80
2017-10-19T20:10:18.124Z,14.80
2017-10-19T20:12:48.252Z,14.70
2017-10-19T20:15:18.797Z,14.50
2017-10-19T20:17:48.480Z,14.40
2017-10-19T20:20:18.384Z,14.50
2017-10-19T20:22:48.976Z,14.70
2017-10-19T20:25:18.682Z,14.70
2017-10-19T20:27:48.223Z,14.80
2017-10-19T20:30:17.642Z,14.80
2017-10-19T20:32:47.203Z,14.80
2017-10-19T20:35:16.469Z,14.60
2017-10-19T20:37:45.302Z,14.70
2017-10-19T20:40:12.925Z,14.70
2017-10-19T20:42:41.311Z,14.60
2017-10-19T20:45:09.677Z,14.60
2017-10-19T20:47:39.474Z,14.60
2017-10-19T20:50:07.139Z,14.40
2017-10-19T20:52:34.725Z,14.20
2017-10-19T20:55:02.370Z,14.10
2017-10-19T20:57:29.968Z,14.10
2017-10-19T20:59:57.585Z,14.20
2017-10-19T21:02:25.220Z,14.20
2017-10-19T21:04:52.862Z,14.20
2017-10-19T21:07:20.458Z,14.10
2017-10-19T21:09:48.070Z,14.00
2017-10-19T21:12:15.757Z,14.00
2017-10-19T21:14:43.373Z,14.20
2017-10-19T21:17:10.966Z,14.30
2017-10-19T21:19:38.599Z,14.10
2017-10-19T21:22:06.175Z,14.10
2017-10-19T21:24:34.571Z,14.20
2017-10-19T21:27:02.164Z,14.20
2017-10-19T21:29:29.812Z,14.30
2017-10-19T21:31:57.478Z,14.10
2017-10-19T21:34:25.067Z,13.90
2017-10-19T21:36:52.668Z,13.80
2017-10-19T21:39:21.077Z,13.80
2017-10-19T21:41:48.703Z,13.80
2017-10-19T21:44:17.092Z,13.90
2017-10-19T21:46:44.737Z,13.90
2017-10-19T21:49:12.339Z,13.70
2017-10-19T21:51:39.996Z,13.60
2017-10-19T21:54:07.630Z,13.50
2017-10-19T21:56:36.004Z,13.60
2017-10-19T21:59:03.593Z,13.60
2017-10-19T22:01:31.239Z,13.80
2017-10-19T22:03:59.602Z,13.70
2017-10-19T22:06:27.203Z,13.60
2017-10-19T22:08:54.828Z,13.50
2017-10-19T22:11:22.463Z,13.50
2017-10-19T22:13:50.090Z,13.60
2017-10-19T22:16:17.710Z,13.70
2017-10-19T22:18:45.332Z,13.60
2017-10-19T22:21:12.922Z,13.40
2017-10-19T22:23:40.570Z,13.60
2017-10-19T22:26:08.174Z,13.50
2017-10-19T22:28:36.580Z,13.50
2017-10-19T22:31:04.969Z,13.60
2017-10-19T22:33:32.627Z,13.50
2017-10-19T22:36:00.245Z,13.70
2017-10-19T22:38:27.909Z,13.60
2017-10-19T22:40:55.490Z,13.60
2017-10-19T22:43:23.129Z,13.70
2017-10-19T22:45:50.741Z,13.70
2017-10-19T22:48:18.344Z,13.60
2017-10-19T22:50:45.935Z,13.60
2017-10-19T22:53:14.323Z,13.70
2017-10-19T22:55:41.976Z,13.70
2017-10-19T22:58:10.339Z,13.90
2017-10-19T23:00:38.708Z,13.80
2017-10-19T23:03:06.344Z,13.80
2017-10-19T23:05:33.935Z,13.80
2017-10-19T23:08:01.566Z,13.70
2017-10-19T23:10:29.199Z,13.70
2017-10-19T23:12:56.827Z,13.70
2017-10-19T23:15:24.415Z,13.70
2017-10-19T23:17:52.064Z,13.80
2017-10-19T23:20:19.656Z,13.90
2017-10-19T23:22:47.273Z,13.80
2017-10-19T23:25:15.690Z,13.80
2017-10-19T23:27:43.313Z,13.80
2017-10-19T23:30:10.952Z,13.60
2017-10-19T23:32:38.568Z,13.60
2017-10-19T23:35:06.168Z,13.50
2017-10-19T23:37:33.851Z,13.60
2017-10-19T23:40:02.241Z,13.60
2017-10-19T23:42:29.867Z,13.50
2017-10-19T23:44:57.444Z,13.40
2017-10-19T23:47:25.083Z,13.30
2017-10-19T23:49:52.690Z,13.30
2017-10-19T23:52:21.077Z,13.30
2017-10-19T23:54:49.466Z,13.20
2017-10-19T23:57:17.893Z,13.10
2017-10-19T23:59:45.478Z,13.10
